sensor_id;sensor_type;location;lat;lon;timestamp;pressure;altitude;pressure_sealevel;temperature;humidity
29941;BME280;16801;53.562;10.038;2023-02-10T00:02:01;103113.34;;;5.90;84.65
29941;BME280;16801;53.562;10.038;2023-02-10T00:05:24;103123.03;;;5.66;84.87
29941;BME280;16801;53.562;10.038;2023-02-10T00:08:46;103118.84;;;6.12;83.61
29941;BME280;16801;53.562;10.038;2023-02-10T00:12:09;103118.66;;;5.92;84.23
29941;BME280;16801;53.562;10.038;2023-02-10T00:15:36;103127.06;;;6.32;83.09
29941;BME280;16801;53.562;10.038;2023-02-10T00:18:57;103121.66;;;6.07;83.76
29941;BME280;16801;53.562;10.038;2023-02-10T00:22:19;103116.44;;;6.04;84.18
29941;BME280;16801;53.562;10.038;2023-02-10T00:25:40;103120.34;;;5.94;84.62
29941;BME280;16801;53.562;10.038;2023-02-10T00:29:01;103118.50;;;5.96;84.27
29941;BME280;16801;53.562;10.038;2023-02-10T00:32:22;103115.25;;;6.37;83.14
29941;BME280;16801;53.562;10.038;2023-02-10T00:35:43;103117.34;;;6.29;83.10
29941;BME280;16801;53.562;10.038;2023-02-10T00:39:06;103116.31;;;5.81;85.39
29941;BME280;16801;53.562;10.038;2023-02-10T00:42:27;103117.88;;;6.14;83.77
29941;BME280;16801;53.562;10.038;2023-02-10T00:45:48;103122.47;;;6.35;83.21
29941;BME280;16801;53.562;10.038;2023-02-10T00:49:10;103124.25;;;6.10;83.63
29941;BME280;16801;53.562;10.038;2023-02-10T00:52:31;103124.94;;;6.15;84.33
29941;BME280;16801;53.562;10.038;2023-02-10T00:55:53;103125.00;;;6.14;83.85
29941;BME280;16801;53.562;10.038;2023-02-10T00:59:14;103132.50;;;6.04;84.23
29941;BME280;16801;53.562;10.038;2023-02-10T01:02:35;103127.75;;;6.12;83.49
29941;BME280;16801;53.562;10.038;2023-02-10T01:05:56;103125.84;;;6.16;84.13
29941;BME280;16801;53.562;10.038;2023-02-10T01:09:17;103141.47;;;5.76;85.19
29941;BME280;16801;53.562;10.038;2023-02-10T01:12:39;103130.25;;;5.92;84.93
29941;BME280;16801;53.562;10.038;2023-02-10T01:16:03;103119.31;;;5.98;84.05
29941;BME280;16801;53.562;10.038;2023-02-10T01:19:24;103126.19;;;6.05;84.97
29941;BME280;16801;53.562;10.038;2023-02-10T01:22:45;103134.16;;;6.08;83.89
29941;BME280;16801;53.562;10.038;2023-02-10T01:26:07;103147.22;;;5.91;84.52
29941;BME280;16801;53.562;10.038;2023-02-10T01:29:29;103140.78;;;6.23;83.86
29941;BME280;16801;53.562;10.038;2023-02-10T01:32:52;103143.03;;;6.60;82.12
29941;BME280;16801;53.562;10.038;2023-02-10T01:36:15;103140.50;;;6.55;81.81
29941;BME280;16801;53.562;10.038;2023-02-10T01:39:36;103134.81;;;6.64;81.33
29941;BME280;16801;53.562;10.038;2023-02-10T01:42:57;103119.84;;;6.59;81.79
29941;BME280;16801;53.562;10.038;2023-02-10T01:46:19;103120.94;;;6.28;82.86
29941;BME280;16801;53.562;10.038;2023-02-10T01:49:44;103127.72;;;6.63;81.44
29941;BME280;16801;53.562;10.038;2023-02-10T01:53:07;103127.66;;;6.65;82.12
29941;BME280;16801;53.562;10.038;2023-02-10T01:56:28;103120.53;;;6.14;83.53
29941;BME280;16801;53.562;10.038;2023-02-10T01:59:49;103119.19;;;6.27;83.69
29941;BME280;16801;53.562;10.038;2023-02-10T02:03:13;103119.19;;;6.52;82.84
29941;BME280;16801;53.562;10.038;2023-02-10T02:06:35;103123.13;;;6.17;83.97
29941;BME280;16801;53.562;10.038;2023-02-10T02:09:57;103121.28;;;6.19;83.61
29941;BME280;16801;53.562;10.038;2023-02-10T02:13:23;103120.25;;;6.23;83.83
29941;BME280;16801;53.562;10.038;2023-02-10T02:16:59;103131.69;;;5.75;85.52
29941;BME280;16801;53.562;10.038;2023-02-10T02:20:35;103114.34;;;5.88;86.05
29941;BME280;16801;53.562;10.038;2023-02-10T02:24:25;103126.81;;;5.87;85.60
29941;BME280;16801;53.562;10.038;2023-02-10T02:28:03;103122.63;;;6.06;85.06
29941;BME280;16801;53.562;10.038;2023-02-10T02:31:40;103124.50;;;6.29;84.49
29941;BME280;16801;53.562;10.038;2023-02-10T02:35:09;103126.25;;;6.04;85.33
29941;BME280;16801;53.562;10.038;2023-02-10T02:38:37;103118.50;;;5.96;85.76
29941;BME280;16801;53.562;10.038;2023-02-10T02:42:12;103128.50;;;6.16;85.01
29941;BME280;16801;53.562;10.038;2023-02-10T02:45:43;103127.69;;;6.14;85.28
29941;BME280;16801;53.562;10.038;2023-02-10T02:49:15;103126.19;;;6.05;85.77
29941;BME280;16801;53.562;10.038;2023-02-10T02:52:50;103135.66;;;6.15;84.70
29941;BME280;16801;53.562;10.038;2023-02-10T02:56:23;103131.78;;;5.99;85.55
29941;BME280;16801;53.562;10.038;2023-02-10T02:59:50;103127.59;;;6.17;85.29
29941;BME280;16801;53.562;10.038;2023-02-10T03:03:13;103116.53;;;6.27;84.76
29941;BME280;16801;53.562;10.038;2023-02-10T03:06:36;103114.22;;;6.17;84.98
29941;BME280;16801;53.562;10.038;2023-02-10T03:09:57;103102.47;;;6.21;85.12
29941;BME280;16801;53.562;10.038;2023-02-10T03:13:18;103108.84;;;6.17;85.33
29941;BME280;16801;53.562;10.038;2023-02-10T03:16:39;103114.66;;;6.29;84.34
29941;BME280;16801;53.562;10.038;2023-02-10T03:20:00;103105.50;;;6.10;85.21
29941;BME280;16801;53.562;10.038;2023-02-10T03:23:22;103105.03;;;6.24;84.54
29941;BME280;16801;53.562;10.038;2023-02-10T03:26:43;103116.28;;;6.09;85.23
29941;BME280;16801;53.562;10.038;2023-02-10T03:30:05;103101.59;;;6.20;85.22
29941;BME280;16801;53.562;10.038;2023-02-10T03:33:25;103100.59;;;6.23;84.84
29941;BME280;16801;53.562;10.038;2023-02-10T03:36:46;103098.22;;;6.40;83.89
29941;BME280;16801;53.562;10.038;2023-02-10T03:40:09;103102.56;;;6.18;85.32
29941;BME280;16801;53.562;10.038;2023-02-10T03:43:30;103109.78;;;6.40;84.38
29941;BME280;16801;53.562;10.038;2023-02-10T03:46:51;103116.69;;;6.47;83.91
29941;BME280;16801;53.562;10.038;2023-02-10T03:50:12;103122.09;;;6.21;85.29
29941;BME280;16801;53.562;10.038;2023-02-10T03:53:34;103125.53;;;6.25;84.51
29941;BME280;16801;53.562;10.038;2023-02-10T03:56:56;103122.34;;;6.14;84.85
29941;BME280;16801;53.562;10.038;2023-02-10T04:00:17;103125.06;;;6.63;83.19
29941;BME280;16801;53.562;10.038;2023-02-10T04:03:38;103130.22;;;6.18;84.95
29941;BME280;16801;53.562;10.038;2023-02-10T04:07:00;103135.50;;;6.46;83.82
29941;BME280;16801;53.562;10.038;2023-02-10T04:10:22;103133.25;;;6.59;83.22
29941;BME280;16801;53.562;10.038;2023-02-10T04:13:44;103139.91;;;6.22;84.71
29941;BME280;16801;53.562;10.038;2023-02-10T04:17:04;103144.19;;;6.53;84.65
29941;BME280;16801;53.562;10.038;2023-02-10T04:20:25;103159.03;;;5.84;86.59
29941;BME280;16801;53.562;10.038;2023-02-10T04:23:46;103150.16;;;6.10;86.66
29941;BME280;16801;53.562;10.038;2023-02-10T04:27:07;103145.16;;;5.99;87.37
29941;BME280;16801;53.562;10.038;2023-02-10T04:30:29;103148.75;;;6.24;86.88
29941;BME280;16801;53.562;10.038;2023-02-10T04:33:50;103148.16;;;6.41;85.15
29941;BME280;16801;53.562;10.038;2023-02-10T04:37:11;103159.72;;;5.91;87.93
29941;BME280;16801;53.562;10.038;2023-02-10T04:40:32;103150.41;;;6.28;86.53
29941;BME280;16801;53.562;10.038;2023-02-10T04:43:53;103161.53;;;6.16;87.18
29941;BME280;16801;53.562;10.038;2023-02-10T04:47:15;103155.78;;;6.02;87.13
29941;BME280;16801;53.562;10.038;2023-02-10T04:50:37;103157.84;;;5.93;88.25
29941;BME280;16801;53.562;10.038;2023-02-10T04:53:58;103161.69;;;5.86;88.74
29941;BME280;16801;53.562;10.038;2023-02-10T04:57:18;103152.38;;;6.23;86.76
29941;BME280;16801;53.562;10.038;2023-02-10T05:00:39;103150.09;;;6.11;88.69
29941;BME280;16801;53.562;10.038;2023-02-10T05:04:02;103157.28;;;6.09;88.45
29941;BME280;16801;53.562;10.038;2023-02-10T05:07:22;103181.19;;;5.89;88.89
29941;BME280;16801;53.562;10.038;2023-02-10T05:10:43;103180.53;;;5.81;88.83
29941;BME280;16801;53.562;10.038;2023-02-10T05:14:05;103175.22;;;6.07;88.46
29941;BME280;16801;53.562;10.038;2023-02-10T05:17:26;103176.97;;;6.08;88.62
29941;BME280;16801;53.562;10.038;2023-02-10T05:20:48;103180.13;;;6.21;87.62
29941;BME280;16801;53.562;10.038;2023-02-10T05:24:09;103176.06;;;6.60;86.10
29941;BME280;16801;53.562;10.038;2023-02-10T05:27:30;103182.56;;;6.53;86.03
29941;BME280;16801;53.562;10.038;2023-02-10T05:30:51;103197.31;;;6.14;87.05
29941;BME280;16801;53.562;10.038;2023-02-10T05:34:12;103196.59;;;6.09;88.05
29941;BME280;16801;53.562;10.038;2023-02-10T05:37:35;103204.19;;;5.95;88.67
29941;BME280;16801;53.562;10.038;2023-02-10T05:40:56;103205.28;;;5.89;89.83
29941;BME280;16801;53.562;10.038;2023-02-10T05:44:17;103207.59;;;6.00;89.21
29941;BME280;16801;53.562;10.038;2023-02-10T05:47:38;103206.03;;;5.93;89.00
29941;BME280;16801;53.562;10.038;2023-02-10T05:50:58;103212.91;;;6.01;88.86
29941;BME280;16801;53.562;10.038;2023-02-10T05:54:21;103211.72;;;6.10;88.44
29941;BME280;16801;53.562;10.038;2023-02-10T05:57:41;103207.06;;;5.89;88.71
29941;BME280;16801;53.562;10.038;2023-02-10T06:01:05;103219.47;;;5.62;90.01
29941;BME280;16801;53.562;10.038;2023-02-10T06:04:26;103208.84;;;6.16;87.61
29941;BME280;16801;53.562;10.038;2023-02-10T06:07:47;103220.00;;;5.45;90.18
29941;BME280;16801;53.562;10.038;2023-02-10T06:11:10;103212.63;;;6.10;88.77
29941;BME280;16801;53.562;10.038;2023-02-10T06:14:30;103204.72;;;6.06;87.85
29941;BME280;16801;53.562;10.038;2023-02-10T06:17:51;103220.16;;;6.25;87.51
29941;BME280;16801;53.562;10.038;2023-02-10T06:21:13;103221.19;;;5.94;88.70
29941;BME280;16801;53.562;10.038;2023-02-10T06:24:33;103223.47;;;6.06;88.66
29941;BME280;16801;53.562;10.038;2023-02-10T06:27:56;103224.97;;;5.87;88.82
29941;BME280;16801;53.562;10.038;2023-02-10T06:31:16;103233.28;;;5.78;89.60
29941;BME280;16801;53.562;10.038;2023-02-10T06:34:37;103240.50;;;5.45;90.98
29941;BME280;16801;53.562;10.038;2023-02-10T06:38:00;103247.31;;;5.56;90.55
29941;BME280;16801;53.562;10.038;2023-02-10T06:41:20;103243.63;;;5.90;89.16
29941;BME280;16801;53.562;10.038;2023-02-10T06:44:43;103240.00;;;5.91;89.22
29941;BME280;16801;53.562;10.038;2023-02-10T06:48:04;103243.78;;;5.85;89.34
29941;BME280;16801;53.562;10.038;2023-02-10T06:51:25;103249.94;;;5.87;89.48
29941;BME280;16801;53.562;10.038;2023-02-10T06:54:46;103260.56;;;5.90;89.75
29941;BME280;16801;53.562;10.038;2023-02-10T06:58:07;103246.69;;;5.76;90.66
29941;BME280;16801;53.562;10.038;2023-02-10T07:01:29;103269.88;;;5.77;90.44
29941;BME280;16801;53.562;10.038;2023-02-10T07:04:50;103259.50;;;5.96;90.01
29941;BME280;16801;53.562;10.038;2023-02-10T07:08:11;103265.69;;;5.98;88.63
29941;BME280;16801;53.562;10.038;2023-02-10T07:11:32;103278.59;;;5.82;89.80
29941;BME280;16801;53.562;10.038;2023-02-10T07:14:53;103275.41;;;5.71;90.17
29941;BME280;16801;53.562;10.038;2023-02-10T07:18:16;103292.84;;;5.86;89.63
29941;BME280;16801;53.562;10.038;2023-02-10T07:21:37;103285.47;;;5.63;91.18
29941;BME280;16801;53.562;10.038;2023-02-10T07:24:58;103282.31;;;5.78;91.28
29941;BME280;16801;53.562;10.038;2023-02-10T07:28:19;103288.28;;;6.15;89.89
29941;BME280;16801;53.562;10.038;2023-02-10T07:31:40;103285.81;;;6.37;88.84
29941;BME280;16801;53.562;10.038;2023-02-10T07:35:02;103284.66;;;5.90;90.30
29941;BME280;16801;53.562;10.038;2023-02-10T07:38:23;103280.28;;;5.88;90.17
29941;BME280;16801;53.562;10.038;2023-02-10T07:41:44;103286.75;;;6.36;89.16
29941;BME280;16801;53.562;10.038;2023-02-10T07:45:06;103288.66;;;6.05;89.44
29941;BME280;16801;53.562;10.038;2023-02-10T07:48:27;103290.47;;;6.32;88.17
29941;BME280;16801;53.562;10.038;2023-02-10T07:51:49;103302.19;;;6.00;89.98
29941;BME280;16801;53.562;10.038;2023-02-10T07:55:10;103291.72;;;6.20;88.99
29941;BME280;16801;53.562;10.038;2023-02-10T07:58:30;103291.03;;;6.68;87.46
29941;BME280;16801;53.562;10.038;2023-02-10T08:01:51;103297.75;;;6.27;89.18
29941;BME280;16801;53.562;10.038;2023-02-10T08:05:12;103296.53;;;6.37;88.78
29941;BME280;16801;53.562;10.038;2023-02-10T08:08:34;103288.56;;;6.62;86.63
29941;BME280;16801;53.562;10.038;2023-02-10T08:11:55;103287.63;;;6.36;88.62
29941;BME280;16801;53.562;10.038;2023-02-10T08:15:16;103296.59;;;6.62;87.22
29941;BME280;16801;53.562;10.038;2023-02-10T08:18:38;103293.78;;;6.91;86.13
29941;BME280;16801;53.562;10.038;2023-02-10T08:21:59;103294.53;;;6.70;86.60
29941;BME280;16801;53.562;10.038;2023-02-10T08:25:22;103301.44;;;7.28;84.57
29941;BME280;16801;53.562;10.038;2023-02-10T08:28:43;103300.03;;;6.91;86.08
29941;BME280;16801;53.562;10.038;2023-02-10T08:32:04;103300.16;;;6.36;87.64
29941;BME280;16801;53.562;10.038;2023-02-10T08:35:24;103305.69;;;6.82;86.77
29941;BME280;16801;53.562;10.038;2023-02-10T08:38:47;103293.31;;;6.80;86.18
29941;BME280;16801;53.562;10.038;2023-02-10T08:42:09;103296.44;;;6.12;89.20
29941;BME280;16801;53.562;10.038;2023-02-10T08:45:30;103288.22;;;6.97;85.67
29941;BME280;16801;53.562;10.038;2023-02-10T08:48:51;103283.84;;;8.12;81.83
29941;BME280;16801;53.562;10.038;2023-02-10T08:52:12;103299.06;;;6.94;85.12
29941;BME280;16801;53.562;10.038;2023-02-10T08:55:32;103304.69;;;6.60;87.28
29941;BME280;16801;53.562;10.038;2023-02-10T08:58:55;103308.50;;;6.53;88.38
29941;BME280;16801;53.562;10.038;2023-02-10T09:02:15;103303.97;;;7.31;87.67
29941;BME280;16801;53.562;10.038;2023-02-10T09:05:36;103307.19;;;7.88;85.23
29941;BME280;16801;53.562;10.038;2023-02-10T09:08:57;103319.53;;;7.21;84.95
29941;BME280;16801;53.562;10.038;2023-02-10T09:12:19;103312.00;;;7.32;84.09
29941;BME280;16801;53.562;10.038;2023-02-10T09:15:41;103308.50;;;7.30;84.01
29941;BME280;16801;53.562;10.038;2023-02-10T09:19:03;103322.59;;;6.86;86.17
29941;BME280;16801;53.562;10.038;2023-02-10T09:22:24;103325.78;;;6.44;88.08
29941;BME280;16801;53.562;10.038;2023-02-10T09:25:52;103315.97;;;6.70;87.69
29941;BME280;16801;53.562;10.038;2023-02-10T09:29:13;103320.44;;;6.43;88.34
29941;BME280;16801;53.562;10.038;2023-02-10T09:32:35;103320.28;;;6.47;89.21
29941;BME280;16801;53.562;10.038;2023-02-10T09:35:56;103326.81;;;6.39;87.92
29941;BME280;16801;53.562;10.038;2023-02-10T09:39:17;103335.19;;;6.28;88.85
29941;BME280;16801;53.562;10.038;2023-02-10T09:42:51;103316.50;;;6.55;87.60
29941;BME280;16801;53.562;10.038;2023-02-10T09:46:26;103320.84;;;6.59;87.95
29941;BME280;16801;53.562;10.038;2023-02-10T09:50:03;103324.53;;;6.81;87.31
29941;BME280;16801;53.562;10.038;2023-02-10T09:53:27;103320.47;;;6.69;88.34
29941;BME280;16801;53.562;10.038;2023-02-10T09:56:49;103325.81;;;6.95;86.65
29941;BME280;16801;53.562;10.038;2023-02-10T10:00:19;103315.44;;;7.11;85.80
29941;BME280;16801;53.562;10.038;2023-02-10T10:03:44;103329.69;;;6.87;86.93
29941;BME280;16801;53.562;10.038;2023-02-10T10:07:18;103318.41;;;7.51;85.04
29941;BME280;16801;53.562;10.038;2023-02-10T10:10:44;103323.13;;;7.21;85.30
29941;BME280;16801;53.562;10.038;2023-02-10T10:14:16;103337.06;;;7.06;86.06
29941;BME280;16801;53.562;10.038;2023-02-10T10:17:47;103327.75;;;7.16;85.43
29941;BME280;16801;53.562;10.038;2023-02-10T10:21:17;103335.25;;;7.79;82.77
29941;BME280;16801;53.562;10.038;2023-02-10T10:24:53;103328.00;;;7.58;82.92
29941;BME280;16801;53.562;10.038;2023-02-10T10:28:29;103326.22;;;7.82;81.78
29941;BME280;16801;53.562;10.038;2023-02-10T10:32:01;103322.25;;;6.95;86.02
29941;BME280;16801;53.562;10.038;2023-02-10T10:35:30;103334.25;;;7.09;84.92
29941;BME280;16801;53.562;10.038;2023-02-10T10:38:56;103330.41;;;7.41;83.42
29941;BME280;16801;53.562;10.038;2023-02-10T10:42:26;103334.84;;;7.67;81.78
29941;BME280;16801;53.562;10.038;2023-02-10T10:45:51;103338.09;;;7.27;83.06
29941;BME280;16801;53.562;10.038;2023-02-10T10:49:14;103329.53;;;7.16;84.28
29941;BME280;16801;53.562;10.038;2023-02-10T10:52:36;103329.97;;;7.53;83.10
29941;BME280;16801;53.562;10.038;2023-02-10T10:55:58;103328.16;;;7.54;82.53
29941;BME280;16801;53.562;10.038;2023-02-10T10:59:25;103313.69;;;7.58;81.61
29941;BME280;16801;53.562;10.038;2023-02-10T11:02:52;103312.81;;;8.03;81.07
29941;BME280;16801;53.562;10.038;2023-02-10T11:06:17;103314.97;;;7.48;82.88
29941;BME280;16801;53.562;10.038;2023-02-10T11:09:40;103315.88;;;7.94;82.46
29941;BME280;16801;53.562;10.038;2023-02-10T11:13:02;103318.31;;;8.45;79.15
29941;BME280;16801;53.562;10.038;2023-02-10T11:16:27;103314.88;;;8.42;78.64
29941;BME280;16801;53.562;10.038;2023-02-10T11:19:56;103312.16;;;7.75;81.82
29941;BME280;16801;53.562;10.038;2023-02-10T11:23:17;103309.09;;;7.84;81.10
29941;BME280;16801;53.562;10.038;2023-02-10T11:26:39;103310.06;;;8.28;79.45
29941;BME280;16801;53.562;10.038;2023-02-10T11:30:00;103306.03;;;8.61;77.19
29941;BME280;16801;53.562;10.038;2023-02-10T11:33:26;103300.66;;;9.42;74.83
29941;BME280;16801;53.562;10.038;2023-02-10T11:36:48;103283.03;;;10.99;66.70
29941;BME280;16801;53.562;10.038;2023-02-10T11:40:17;103268.38;;;11.38;65.46
29941;BME280;16801;53.562;10.038;2023-02-10T11:43:42;103259.59;;;11.50;63.88
29941;BME280;16801;53.562;10.038;2023-02-10T11:47:10;103265.88;;;11.83;61.99
29941;BME280;16801;53.562;10.038;2023-02-10T11:50:35;103263.25;;;12.44;60.16
29941;BME280;16801;53.562;10.038;2023-02-10T11:53:57;103256.69;;;11.04;65.43
29941;BME280;16801;53.562;10.038;2023-02-10T11:57:26;103244.84;;;12.80;59.47
29941;BME280;16801;53.562;10.038;2023-02-10T12:01:15;103251.56;;;10.30;66.87
29941;BME280;16801;53.562;10.038;2023-02-10T12:05:07;103251.78;;;10.07;68.50
29941;BME280;16801;53.562;10.038;2023-02-10T12:08:44;103241.38;;;9.81;69.42
29941;BME280;16801;53.562;10.038;2023-02-10T12:12:11;103237.53;;;9.68;70.05
29941;BME280;16801;53.562;10.038;2023-02-10T12:15:46;103225.28;;;9.98;70.33
29941;BME280;16801;53.562;10.038;2023-02-10T12:19:19;103220.88;;;9.78;71.05
29941;BME280;16801;53.562;10.038;2023-02-10T12:23:05;103230.47;;;9.65;70.10
29941;BME280;16801;53.562;10.038;2023-02-10T12:26:34;103222.88;;;9.92;68.67
29941;BME280;16801;53.562;10.038;2023-02-10T12:30:02;103213.28;;;9.86;68.89
29941;BME280;16801;53.562;10.038;2023-02-10T12:33:38;103212.34;;;9.68;68.91
29941;BME280;16801;53.562;10.038;2023-02-10T12:37:10;103203.13;;;10.45;66.10
29941;BME280;16801;53.562;10.038;2023-02-10T12:40:48;103214.13;;;10.24;65.96
29941;BME280;16801;53.562;10.038;2023-02-10T12:44:28;103194.41;;;10.05;66.37
29941;BME280;16801;53.562;10.038;2023-02-10T12:48:01;103181.41;;;10.66;64.37
29941;BME280;16801;53.562;10.038;2023-02-10T12:51:41;103175.44;;;10.59;65.00
29941;BME280;16801;53.562;10.038;2023-02-10T12:55:14;103178.94;;;10.08;65.91
29941;BME280;16801;53.562;10.038;2023-02-10T12:58:39;103162.41;;;9.97;65.84
29941;BME280;16801;53.562;10.038;2023-02-10T13:02:04;103179.09;;;10.24;66.31
29941;BME280;16801;53.562;10.038;2023-02-10T13:05:32;103170.19;;;10.39;65.09
29941;BME280;16801;53.562;10.038;2023-02-10T13:09:02;103177.53;;;11.04;62.44
29941;BME280;16801;53.562;10.038;2023-02-10T13:12:27;103166.59;;;10.90;62.80
29941;BME280;16801;53.562;10.038;2023-02-10T13:15:52;103176.81;;;10.68;63.99
29941;BME280;16801;53.562;10.038;2023-02-10T13:19:24;103169.97;;;10.43;64.29
29941;BME280;16801;53.562;10.038;2023-02-10T13:22:52;103175.22;;;10.64;63.92
29941;BME280;16801;53.562;10.038;2023-02-10T13:26:41;103173.41;;;9.76;66.20
29941;BME280;16801;53.562;10.038;2023-02-10T13:30:23;103156.72;;;10.56;64.19
29941;BME280;16801;53.562;10.038;2023-02-10T13:33:53;103156.72;;;10.22;63.94
29941;BME280;16801;53.562;10.038;2023-02-10T13:37:27;103160.84;;;10.29;64.17
29941;BME280;16801;53.562;10.038;2023-02-10T13:40:51;103145.22;;;10.70;62.83
29941;BME280;16801;53.562;10.038;2023-02-10T13:44:23;103138.69;;;10.74;62.88
29941;BME280;16801;53.562;10.038;2023-02-10T13:47:48;103130.72;;;10.38;64.10
29941;BME280;16801;53.562;10.038;2023-02-10T13:51:10;103125.22;;;10.22;64.97
29941;BME280;16801;53.562;10.038;2023-02-10T13:54:33;103125.97;;;9.90;65.67
29941;BME280;16801;53.562;10.038;2023-02-10T13:57:57;103120.13;;;9.63;66.60
29941;BME280;16801;53.562;10.038;2023-02-10T14:01:36;103117.03;;;10.07;65.51
29941;BME280;16801;53.562;10.038;2023-02-10T14:04:57;103113.88;;;10.50;64.30
29941;BME280;16801;53.562;10.038;2023-02-10T14:08:28;103111.84;;;10.21;64.54
29941;BME280;16801;53.562;10.038;2023-02-10T14:11:51;103130.44;;;9.73;65.89
29941;BME280;16801;53.562;10.038;2023-02-10T14:15:19;103125.25;;;10.04;64.23
29941;BME280;16801;53.562;10.038;2023-02-10T14:18:43;103137.47;;;9.39;66.08
29941;BME280;16801;53.562;10.038;2023-02-10T14:22:21;103113.25;;;10.11;63.63
29941;BME280;16801;53.562;10.038;2023-02-10T14:25:42;103119.53;;;10.11;63.68
29941;BME280;16801;53.562;10.038;2023-02-10T14:29:09;103118.13;;;9.86;64.58
29941;BME280;16801;53.562;10.038;2023-02-10T14:32:31;103121.75;;;9.85;64.50
29941;BME280;16801;53.562;10.038;2023-02-10T14:35:54;103118.25;;;9.65;64.68
29941;BME280;16801;53.562;10.038;2023-02-10T14:39:16;103101.81;;;9.53;64.96
29941;BME280;16801;53.562;10.038;2023-02-10T14:42:41;103105.13;;;9.58;65.06
29941;BME280;16801;53.562;10.038;2023-02-10T14:46:03;103104.25;;;9.57;65.20
29941;BME280;16801;53.562;10.038;2023-02-10T14:49:24;103098.88;;;9.57;64.43
29941;BME280;16801;53.562;10.038;2023-02-10T14:52:48;103091.03;;;10.06;62.72
29941;BME280;16801;53.562;10.038;2023-02-10T14:56:16;103094.44;;;9.56;64.93
29941;BME280;16801;53.562;10.038;2023-02-10T14:59:37;103080.34;;;9.33;65.38
29941;BME280;16801;53.562;10.038;2023-02-10T15:03:01;103072.84;;;9.39;64.52
29941;BME280;16801;53.562;10.038;2023-02-10T15:06:23;103082.53;;;9.25;64.68
29941;BME280;16801;53.562;10.038;2023-02-10T15:09:45;103068.81;;;9.66;64.31
29941;BME280;16801;53.562;10.038;2023-02-10T15:13:08;103085.44;;;9.20;65.71
29941;BME280;16801;53.562;10.038;2023-02-10T15:16:30;103076.81;;;9.85;63.84
29941;BME280;16801;53.562;10.038;2023-02-10T15:19:55;103055.09;;;9.35;64.99
29941;BME280;16801;53.562;10.038;2023-02-10T15:23:16;103080.53;;;9.11;65.30
29941;BME280;16801;53.562;10.038;2023-02-10T15:26:38;103075.41;;;8.86;65.60
29941;BME280;16801;53.562;10.038;2023-02-10T15:30:05;103041.47;;;9.21;64.42
29941;BME280;16801;53.562;10.038;2023-02-10T15:33:29;103040.72;;;9.36;64.41
29941;BME280;16801;53.562;10.038;2023-02-10T15:36:57;103068.03;;;9.46;63.74
29941;BME280;16801;53.562;10.038;2023-02-10T15:40:21;103061.09;;;9.23;64.96
29941;BME280;16801;53.562;10.038;2023-02-10T15:43:46;103070.19;;;9.02;65.88
29941;BME280;16801;53.562;10.038;2023-02-10T15:47:25;103068.72;;;8.95;66.37
29941;BME280;16801;53.562;10.038;2023-02-10T15:50:47;103065.22;;;8.93;66.52
29941;BME280;16801;53.562;10.038;2023-02-10T15:54:12;103067.66;;;8.60;67.15
29941;BME280;16801;53.562;10.038;2023-02-10T15:57:33;103064.28;;;9.13;65.47
29941;BME280;16801;53.562;10.038;2023-02-10T16:00:54;103074.09;;;9.14;66.21
29941;BME280;16801;53.562;10.038;2023-02-10T16:04:15;103077.59;;;9.34;65.51
29941;BME280;16801;53.562;10.038;2023-02-10T16:07:36;103085.31;;;9.23;65.04
29941;BME280;16801;53.562;10.038;2023-02-10T16:10:58;103099.97;;;8.79;66.87
29941;BME280;16801;53.562;10.038;2023-02-10T16:14:19;103086.13;;;9.07;65.83
29941;BME280;16801;53.562;10.038;2023-02-10T16:17:42;103089.16;;;9.36;64.70
29941;BME280;16801;53.562;10.038;2023-02-10T16:21:04;103083.69;;;8.82;67.00
29941;BME280;16801;53.562;10.038;2023-02-10T16:24:27;103072.56;;;8.90;67.19
29941;BME280;16801;53.562;10.038;2023-02-10T16:27:50;103062.09;;;8.65;68.19
29941;BME280;16801;53.562;10.038;2023-02-10T16:31:11;103062.22;;;8.80;68.06
29941;BME280;16801;53.562;10.038;2023-02-10T16:34:32;103069.44;;;8.61;68.83
29941;BME280;16801;53.562;10.038;2023-02-10T16:37:54;103061.28;;;8.63;68.88
29941;BME280;16801;53.562;10.038;2023-02-10T16:41:15;103051.22;;;9.05;67.19
29941;BME280;16801;53.562;10.038;2023-02-10T16:44:37;103061.59;;;8.75;67.86
29941;BME280;16801;53.562;10.038;2023-02-10T16:47:58;103079.31;;;8.61;67.80
29941;BME280;16801;53.562;10.038;2023-02-10T16:51:20;103072.94;;;8.82;67.77
29941;BME280;16801;53.562;10.038;2023-02-10T16:54:40;103064.63;;;8.86;68.03
29941;BME280;16801;53.562;10.038;2023-02-10T16:58:02;103049.53;;;8.84;67.44
29941;BME280;16801;53.562;10.038;2023-02-10T17:01:25;103050.56;;;9.00;67.18
29941;BME280;16801;53.562;10.038;2023-02-10T17:04:46;103054.22;;;8.60;68.30
29941;BME280;16801;53.562;10.038;2023-02-10T17:08:07;103037.03;;;8.83;67.83
29941;BME280;16801;53.562;10.038;2023-02-10T17:11:28;103043.38;;;8.82;68.26
29941;BME280;16801;53.562;10.038;2023-02-10T17:14:48;103038.19;;;8.59;68.75
29941;BME280;16801;53.562;10.038;2023-02-10T17:18:12;103046.56;;;8.90;67.47
29941;BME280;16801;53.562;10.038;2023-02-10T17:21:33;103044.28;;;8.81;67.94
29941;BME280;16801;53.562;10.038;2023-02-10T17:24:54;103045.53;;;9.30;66.63
29941;BME280;16801;53.562;10.038;2023-02-10T17:28:15;103041.91;;;8.94;67.32
29941;BME280;16801;53.562;10.038;2023-02-10T17:31:36;103057.75;;;8.81;67.71
29941;BME280;16801;53.562;10.038;2023-02-10T17:34:58;103063.41;;;8.75;68.02
29941;BME280;16801;53.562;10.038;2023-02-10T17:38:19;103058.91;;;8.75;68.31
29941;BME280;16801;53.562;10.038;2023-02-10T17:41:48;103059.28;;;8.48;69.96
29941;BME280;16801;53.562;10.038;2023-02-10T17:45:09;103053.97;;;8.85;68.41